sensor_id;sensor_type;location;lat;lon;timestamp;temperature;humidity
13462;DHT22;6803;45.264;5.468;2022-09-09T00:01:28;16.80;99.90
13462;DHT22;6803;45.264;5.468;2022-09-09T00:04:05;16.80;99.90
13462;DHT22;6803;45.264;5.468;2022-09-09T00:06:42;16.80;99.90
13462;DHT22;6803;45.264;5.468;2022-09-09T00:09:12;16.60;99.90
13462;DHT22;6803;45.264;5.468;2022-09-09T00:11:46;16.50;99.90
13462;DHT22;6803;45.264;5.468;2022-09-09T00:14:22;16.30;99.90
13462;DHT22;6803;45.264;5.468;2022-09-09T00:16:56;16.10;99.90
13462;DHT22;6803;45.264;5.468;2022-09-09T00:19:31;16.10;99.90
13462;DHT22;6803;45.264;5.468;2022-09-09T00:22:14;16.10;99.90
13462;DHT22;6803;45.264;5.468;2022-09-09T00:24:46;16.20;99.90
13462;DHT22;6803;45.264;5.468;2022-09-09T00:27:21;16.30;99.90
13462;DHT22;6803;45.264;5.468;2022-09-09T00:29:55;16.20;99.90
13462;DHT22;6803;45.264;5.468;2022-09-09T00:32:29;16.00;99.90
13462;DHT22;6803;45.264;5.468;2022-09-09T00:35:03;15.90;99.90
13462;DHT22;6803;45.264;5.468;2022-09-09T00:37:35;15.80;99.90
13462;DHT22;6803;45.264;5.468;2022-09-09T00:40:13;15.60;99.90
13462;DHT22;6803;45.264;5.468;2022-09-09T00:42:43;15.40;99.90
13462;DHT22;6803;45.264;5.468;2022-09-09T00:45:25;15.40;99.90
13462;DHT22;6803;45.264;5.468;2022-09-09T00:47:55;15.40;99.90
13462;DHT22;6803;45.264;5.468;2022-09-09T00:50:44;15.40;99.90
13462;DHT22;6803;45.264;5.468;2022-09-09T00:53:23;15.30;99.90
13462;DHT22;6803;45.264;5.468;2022-09-09T00:55:58;15.30;99.90
13462;DHT22;6803;45.264;5.468;2022-09-09T00:58:29;15.40;99.90
13462;DHT22;6803;45.264;5.468;2022-09-09T01:01:02;15.50;99.90
13462;DHT22;6803;45.264;5.468;2022-09-09T01:03:37;15.50;99.90
13462;DHT22;6803;45.264;5.468;2022-09-09T01:06:16;15.30;99.90
13462;DHT22;6803;45.264;5.468;2022-09-09T01:12:01;15.70;99.90
13462;DHT22;6803;45.264;5.468;2022-09-09T01:14:39;15.80;99.90
13462;DHT22;6803;45.264;5.468;2022-09-09T01:17:13;15.80;99.90
13462;DHT22;6803;45.264;5.468;2022-09-09T01:19:52;15.80;99.90
13462;DHT22;6803;45.264;5.468;2022-09-09T01:22:28;15.60;99.90
13462;DHT22;6803;45.264;5.468;2022-09-09T01:25:18;15.40;99.90
13462;DHT22;6803;45.264;5.468;2022-09-09T01:27:49;15.20;99.90
13462;DHT22;6803;45.264;5.468;2022-09-09T01:30:21;15.00;99.90
13462;DHT22;6803;45.264;5.468;2022-09-09T01:32:55;15.00;99.90
13462;DHT22;6803;45.264;5.468;2022-09-09T01:35:42;14.90;99.90
13462;DHT22;6803;45.264;5.468;2022-09-09T01:38:10;14.90;99.90
13462;DHT22;6803;45.264;5.468;2022-09-09T01:40:40;14.90;99.90
13462;DHT22;6803;45.264;5.468;2022-09-09T01:43:11;14.80;99.90
13462;DHT22;6803;45.264;5.468;2022-09-09T01:45:43;14.80;99.90
13462;DHT22;6803;45.264;5.468;2022-09-09T01:48:15;14.90;99.90
13462;DHT22;6803;45.264;5.468;2022-09-09T01:50:45;14.90;99.90
13462;DHT22;6803;45.264;5.468;2022-09-09T01:53:17;14.90;99.90
13462;DHT22;6803;45.264;5.468;2022-09-09T01:55:52;14.90;99.90
13462;DHT22;6803;45.264;5.468;2022-09-09T01:58:28;14.80;99.90
13462;DHT22;6803;45.264;5.468;2022-09-09T02:01:04;14.60;99.90
13462;DHT22;6803;45.264;5.468;2022-09-09T02:03:36;14.60;99.90
13462;DHT22;6803;45.264;5.468;2022-09-09T02:06:11;14.50;99.90
13462;DHT22;6803;45.264;5.468;2022-09-09T02:08:44;14.50;99.90
13462;DHT22;6803;45.264;5.468;2022-09-09T02:11:17;14.50;99.90
13462;DHT22;6803;45.264;5.468;2022-09-09T02:13:51;14.60;99.90
13462;DHT22;6803;45.264;5.468;2022-09-09T02:16:24;14.50;99.90
13462;DHT22;6803;45.264;5.468;2022-09-09T02:19:00;14.40;99.90
13462;DHT22;6803;45.264;5.468;2022-09-09T02:21:31;14.30;99.90
13462;DHT22;6803;45.264;5.468;2022-09-09T02:24:06;14.30;99.90
13462;DHT22;6803;45.264;5.468;2022-09-09T02:26:41;14.10;99.90
13462;DHT22;6803;45.264;5.468;2022-09-09T02:29:18;14.00;99.90
13462;DHT22;6803;45.264;5.468;2022-09-09T02:31:48;14.00;99.90
13462;DHT22;6803;45.264;5.468;2022-09-09T02:34:21;13.90;99.90
13462;DHT22;6803;45.264;5.468;2022-09-09T02:36:55;13.90;99.90
13462;DHT22;6803;45.264;5.468;2022-09-09T02:39:27;14.00;99.90
13462;DHT22;6803;45.264;5.468;2022-09-09T02:41:57;14.10;99.90
13462;DHT22;6803;45.264;5.468;2022-09-09T02:44:28;14.30;99.90
13462;DHT22;6803;45.264;5.468;2022-09-09T02:47:15;14.40;99.90
13462;DHT22;6803;45.264;5.468;2022-09-09T02:49:50;14.50;99.90
13462;DHT22;6803;45.264;5.468;2022-09-09T02:52:25;14.60;99.90
13462;DHT22;6803;45.264;5.468;2022-09-09T02:54:57;14.60;99.90
13462;DHT22;6803;45.264;5.468;2022-09-09T02:57:30;14.30;99.90
13462;DHT22;6803;45.264;5.468;2022-09-09T03:00:03;14.50;99.90
13462;DHT22;6803;45.264;5.468;2022-09-09T03:02:34;14.70;99.90
13462;DHT22;6803;45.264;5.468;2022-09-09T03:05:07;14.50;99.90
13462;DHT22;6803;45.264;5.468;2022-09-09T03:07:37;14.40;99.90
13462;DHT22;6803;45.264;5.468;2022-09-09T03:10:09;14.30;99.90
13462;DHT22;6803;45.264;5.468;2022-09-09T03:12:40;14.20;99.90
13462;DHT22;6803;45.264;5.468;2022-09-09T03:15:11;14.00;99.90
13462;DHT22;6803;45.264;5.468;2022-09-09T03:17:42;13.80;99.90
13462;DHT22;6803;45.264;5.468;2022-09-09T03:20:12;14.00;99.90
13462;DHT22;6803;45.264;5.468;2022-09-09T03:22:43;14.00;99.90
13462;DHT22;6803;45.264;5.468;2022-09-09T03:25:14;14.00;99.90
13462;DHT22;6803;45.264;5.468;2022-09-09T03:27:45;14.10;99.90
13462;DHT22;6803;45.264;5.468;2022-09-09T03:30:16;14.10;99.90
13462;DHT22;6803;45.264;5.468;2022-09-09T03:32:47;14.00;99.90
13462;DHT22;6803;45.264;5.468;2022-09-09T03:35:18;13.90;99.90
13462;DHT22;6803;45.264;5.468;2022-09-09T03:37:49;13.60;99.90
13462;DHT22;6803;45.264;5.468;2022-09-09T03:40:19;13.60;99.90
13462;DHT22;6803;45.264;5.468;2022-09-09T03:42:50;13.50;99.90
13462;DHT22;6803;45.264;5.468;2022-09-09T03:45:20;13.40;99.90
13462;DHT22;6803;45.264;5.468;2022-09-09T03:47:51;13.40;99.90
13462;DHT22;6803;45.264;5.468;2022-09-09T03:50:22;13.40;99.90
13462;DHT22;6803;45.264;5.468;2022-09-09T03:52:52;13.40;99.90
13462;DHT22;6803;45.264;5.468;2022-09-09T03:55:23;13.50;99.90
13462;DHT22;6803;45.264;5.468;2022-09-09T03:57:54;13.70;99.90
13462;DHT22;6803;45.264;5.468;2022-09-09T04:00:24;13.70;99.90
13462;DHT22;6803;45.264;5.468;2022-09-09T04:02:55;13.60;99.90
13462;DHT22;6803;45.264;5.468;2022-09-09T04:05:26;13.40;99.90
13462;DHT22;6803;45.264;5.468;2022-09-09T04:07:57;13.40;99.90
13462;DHT22;6803;45.264;5.468;2022-09-09T04:10:28;13.30;99.90
13462;DHT22;6803;45.264;5.468;2022-09-09T04:12:58;13.30;99.90
13462;DHT22;6803;45.264;5.468;2022-09-09T04:15:29;13.40;99.90
13462;DHT22;6803;45.264;5.468;2022-09-09T04:18:00;13.40;99.90
13462;DHT22;6803;45.264;5.468;2022-09-09T04:20:31;13.40;99.90
13462;DHT22;6803;45.264;5.468;2022-09-09T04:23:02;13.60;99.90
13462;DHT22;6803;45.264;5.468;2022-09-09T04:25:33;13.80;99.90
13462;DHT22;6803;45.264;5.468;2022-09-09T04:28:04;13.80;99.90
13462;DHT22;6803;45.264;5.468;2022-09-09T04:30:34;13.70;99.90
13462;DHT22;6803;45.264;5.468;2022-09-09T04:33:05;13.70;99.90
13462;DHT22;6803;45.264;5.468;2022-09-09T04:35:36;13.70;99.90
13462;DHT22;6803;45.264;5.468;2022-09-09T04:38:07;13.70;99.90
13462;DHT22;6803;45.264;5.468;2022-09-09T04:40:38;13.60;99.90
13462;DHT22;6803;45.264;5.468;2022-09-09T04:43:11;13.50;99.90
13462;DHT22;6803;45.264;5.468;2022-09-09T04:45:43;13.40;99.90
13462;DHT22;6803;45.264;5.468;2022-09-09T04:48:14;13.30;99.90
13462;DHT22;6803;45.264;5.468;2022-09-09T04:50:45;13.30;99.90
13462;DHT22;6803;45.264;5.468;2022-09-09T04:53:17;13.40;99.90
13462;DHT22;6803;45.264;5.468;2022-09-09T04:55:47;13.40;99.90
13462;DHT22;6803;45.264;5.468;2022-09-09T04:58:18;13.40;99.90
13462;DHT22;6803;45.264;5.468;2022-09-09T05:00:50;13.20;99.90
13462;DHT22;6803;45.264;5.468;2022-09-09T05:03:21;13.20;99.90
13462;DHT22;6803;45.264;5.468;2022-09-09T05:05:52;13.20;99.90
13462;DHT22;6803;45.264;5.468;2022-09-09T05:08:22;13.20;99.90
13462;DHT22;6803;45.264;5.468;2022-09-09T05:10:53;13.30;99.90
13462;DHT22;6803;45.264;5.468;2022-09-09T05:13:24;13.20;99.90
13462;DHT22;6803;45.264;5.468;2022-09-09T05:15:55;13.20;99.90
13462;DHT22;6803;45.264;5.468;2022-09-09T05:18:26;13.10;99.90
13462;DHT22;6803;45.264;5.468;2022-09-09T05:21:00;13.10;99.90
13462;DHT22;6803;45.264;5.468;2022-09-09T05:23:31;13.10;99.90
13462;DHT22;6803;45.264;5.468;2022-09-09T05:26:02;13.00;99.90
13462;DHT22;6803;45.264;5.468;2022-09-09T05:28:35;13.00;99.90
13462;DHT22;6803;45.264;5.468;2022-09-09T05:31:07;13.10;99.90
13462;DHT22;6803;45.264;5.468;2022-09-09T05:33:38;13.10;99.90
13462;DHT22;6803;45.264;5.468;2022-09-09T05:36:11;13.00;99.90
13462;DHT22;6803;45.264;5.468;2022-09-09T05:38:43;12.90;99.90
13462;DHT22;6803;45.264;5.468;2022-09-09T05:41:15;13.00;99.90
13462;DHT22;6803;45.264;5.468;2022-09-09T05:43:47;13.00;99.90
13462;DHT22;6803;45.264;5.468;2022-09-09T05:46:19;13.10;99.90
13462;DHT22;6803;45.264;5.468;2022-09-09T05:48:51;13.30;99.90
13462;DHT22;6803;45.264;5.468;2022-09-09T05:51:24;13.30;99.90
13462;DHT22;6803;45.264;5.468;2022-09-09T05:53:55;13.40;99.90
13462;DHT22;6803;45.264;5.468;2022-09-09T05:56:29;13.40;99.90
13462;DHT22;6803;45.264;5.468;2022-09-09T05:58:59;13.50;99.90
13462;DHT22;6803;45.264;5.468;2022-09-09T06:01:33;13.50;99.90
13462;DHT22;6803;45.264;5.468;2022-09-09T06:04:04;13.50;99.90
13462;DHT22;6803;45.264;5.468;2022-09-09T06:06:36;13.70;99.90
13462;DHT22;6803;45.264;5.468;2022-09-09T06:09:10;13.60;99.90
13462;DHT22;6803;45.264;5.468;2022-09-09T06:11:41;13.80;99.90
13462;DHT22;6803;45.264;5.468;2022-09-09T06:14:12;13.90;99.90
13462;DHT22;6803;45.264;5.468;2022-09-09T06:16:42;13.90;99.90
13462;DHT22;6803;45.264;5.468;2022-09-09T06:19:14;13.90;99.90
13462;DHT22;6803;45.264;5.468;2022-09-09T06:21:44;14.00;99.90
13462;DHT22;6803;45.264;5.468;2022-09-09T06:24:16;14.10;99.90
13462;DHT22;6803;45.264;5.468;2022-09-09T06:26:48;14.30;99.90
13462;DHT22;6803;45.264;5.468;2022-09-09T06:29:19;14.50;99.90
13462;DHT22;6803;45.264;5.468;2022-09-09T06:31:49;14.60;99.90
13462;DHT22;6803;45.264;5.468;2022-09-09T06:34:20;14.60;99.90
13462;DHT22;6803;45.264;5.468;2022-09-09T06:36:51;14.70;99.90
13462;DHT22;6803;45.264;5.468;2022-09-09T06:39:21;14.90;99.90
13462;DHT22;6803;45.264;5.468;2022-09-09T06:41:52;14.90;99.90
13462;DHT22;6803;45.264;5.468;2022-09-09T06:44:22;15.00;99.90
13462;DHT22;6803;45.264;5.468;2022-09-09T06:46:55;15.20;99.90
13462;DHT22;6803;45.264;5.468;2022-09-09T06:49:25;15.20;99.90
13462;DHT22;6803;45.264;5.468;2022-09-09T06:51:56;15.20;99.90
13462;DHT22;6803;45.264;5.468;2022-09-09T06:54:27;15.30;99.90
13462;DHT22;6803;45.264;5.468;2022-09-09T06:56:57;15.20;99.90
13462;DHT22;6803;45.264;5.468;2022-09-09T06:59:31;15.20;99.90
13462;DHT22;6803;45.264;5.468;2022-09-09T07:02:01;15.20;99.90
13462;DHT22;6803;45.264;5.468;2022-09-09T07:04:32;15.30;99.90
13462;DHT22;6803;45.264;5.468;2022-09-09T07:07:03;15.30;99.90
13462;DHT22;6803;45.264;5.468;2022-09-09T07:09:33;15.40;99.90
13462;DHT22;6803;45.264;5.468;2022-09-09T07:12:04;15.60;99.90
13462;DHT22;6803;45.264;5.468;2022-09-09T07:14:35;15.60;99.90
13462;DHT22;6803;45.264;5.468;2022-09-09T07:17:06;15.70;99.90
13462;DHT22;6803;45.264;5.468;2022-09-09T07:19:37;15.70;99.90
13462;DHT22;6803;45.264;5.468;2022-09-09T07:22:08;15.60;99.90
13462;DHT22;6803;45.264;5.468;2022-09-09T07:24:39;15.60;99.90
13462;DHT22;6803;45.264;5.468;2022-09-09T07:27:10;15.90;99.90
13462;DHT22;6803;45.264;5.468;2022-09-09T07:29:41;16.20;99.90
13462;DHT22;6803;45.264;5.468;2022-09-09T07:32:12;16.60;99.90
13462;DHT22;6803;45.264;5.468;2022-09-09T07:34:42;16.80;99.90
13462;DHT22;6803;45.264;5.468;2022-09-09T07:37:13;16.90;99.90
13462;DHT22;6803;45.264;5.468;2022-09-09T07:39:44;17.10;99.90
13462;DHT22;6803;45.264;5.468;2022-09-09T07:42:14;17.40;99.90
13462;DHT22;6803;45.264;5.468;2022-09-09T07:44:45;17.60;99.90
13462;DHT22;6803;45.264;5.468;2022-09-09T07:47:16;17.60;99.90
13462;DHT22;6803;45.264;5.468;2022-09-09T07:49:46;17.40;99.90
13462;DHT22;6803;45.264;5.468;2022-09-09T07:52:18;17.50;99.90
13462;DHT22;6803;45.264;5.468;2022-09-09T07:54:50;17.60;99.90
13462;DHT22;6803;45.264;5.468;2022-09-09T07:57:21;17.80;99.90
13462;DHT22;6803;45.264;5.468;2022-09-09T07:59:52;18.00;99.90
13462;DHT22;6803;45.264;5.468;2022-09-09T08:02:22;18.20;99.90
13462;DHT22;6803;45.264;5.468;2022-09-09T08:04:54;18.20;99.90
13462;DHT22;6803;45.264;5.468;2022-09-09T08:07:25;18.20;99.90
13462;DHT22;6803;45.264;5.468;2022-09-09T08:09:56;18.60;99.90
13462;DHT22;6803;45.264;5.468;2022-09-09T08:12:27;18.80;99.90
13462;DHT22;6803;45.264;5.468;2022-09-09T08:14:58;18.80;99.90
13462;DHT22;6803;45.264;5.468;2022-09-09T08:17:29;19.00;99.90
13462;DHT22;6803;45.264;5.468;2022-09-09T08:19:59;19.10;99.90
13462;DHT22;6803;45.264;5.468;2022-09-09T08:22:31;19.30;99.90
13462;DHT22;6803;45.264;5.468;2022-09-09T08:25:04;19.40;99.90
13462;DHT22;6803;45.264;5.468;2022-09-09T08:27:54;19.60;99.90
13462;DHT22;6803;45.264;5.468;2022-09-09T08:30:24;19.70;99.90
13462;DHT22;6803;45.264;5.468;2022-09-09T08:32:55;20.00;99.90
13462;DHT22;6803;45.264;5.468;2022-09-09T08:35:26;20.00;99.90
13462;DHT22;6803;45.264;5.468;2022-09-09T08:37:58;20.10;99.90
13462;DHT22;6803;45.264;5.468;2022-09-09T08:40:32;20.20;99.90
13462;DHT22;6803;45.264;5.468;2022-09-09T08:43:04;20.20;99.90
13462;DHT22;6803;45.264;5.468;2022-09-09T08:45:38;20.30;99.90
13462;DHT22;6803;45.264;5.468;2022-09-09T08:48:39;20.20;99.90
13462;DHT22;6803;45.264;5.468;2022-09-09T08:51:11;20.50;99.90
13462;DHT22;6803;45.264;5.468;2022-09-09T08:53:45;20.70;99.90
13462;DHT22;6803;45.264;5.468;2022-09-09T08:56:19;20.90;99.90
13462;DHT22;6803;45.264;5.468;2022-09-09T08:58:52;21.20;99.90
13462;DHT22;6803;45.264;5.468;2022-09-09T09:01:38;21.10;99.90
13462;DHT22;6803;45.264;5.468;2022-09-09T09:07:08;21.40;99.90
13462;DHT22;6803;45.264;5.468;2022-09-09T09:09:45;21.50;99.90
13462;DHT22;6803;45.264;5.468;2022-09-09T09:12:18;21.70;99.90
13462;DHT22;6803;45.264;5.468;2022-09-09T09:14:49;22.00;99.90
13462;DHT22;6803;45.264;5.468;2022-09-09T09:17:21;22.30;99.90
13462;DHT22;6803;45.264;5.468;2022-09-09T09:19:53;22.20;99.90
13462;DHT22;6803;45.264;5.468;2022-09-09T09:22:26;22.40;99.90
13462;DHT22;6803;45.264;5.468;2022-09-09T09:25:02;22.40;99.90
13462;DHT22;6803;45.264;5.468;2022-09-09T09:27:36;22.00;99.90
13462;DHT22;6803;45.264;5.468;2022-09-09T09:30:15;22.00;99.90
13462;DHT22;6803;45.264;5.468;2022-09-09T09:32:52;22.00;99.90
13462;DHT22;6803;45.264;5.468;2022-09-09T09:35:24;22.10;99.90
13462;DHT22;6803;45.264;5.468;2022-09-09T09:37:54;22.10;99.90
13462;DHT22;6803;45.264;5.468;2022-09-09T09:40:26;22.40;99.90
13462;DHT22;6803;45.264;5.468;2022-09-09T09:42:59;22.80;99.90
13462;DHT22;6803;45.264;5.468;2022-09-09T09:45:32;22.60;99.90
13462;DHT22;6803;45.264;5.468;2022-09-09T09:48:05;22.90;99.90
13462;DHT22;6803;45.264;5.468;2022-09-09T09:50:46;23.00;99.90
13462;DHT22;6803;45.264;5.468;2022-09-09T09:53:21;23.10;99.90
13462;DHT22;6803;45.264;5.468;2022-09-09T09:55:57;22.70;99.90
13462;DHT22;6803;45.264;5.468;2022-09-09T09:58:30;22.90;99.90
13462;DHT22;6803;45.264;5.468;2022-09-09T10:01:03;22.80;99.90
13462;DHT22;6803;45.264;5.468;2022-09-09T10:03:36;23.00;99.90
13462;DHT22;6803;45.264;5.468;2022-09-09T10:06:08;23.40;99.90
13462;DHT22;6803;45.264;5.468;2022-09-09T10:08:46;23.30;99.90
13462;DHT22;6803;45.264;5.468;2022-09-09T10:11:25;22.80;99.90
13462;DHT22;6803;45.264;5.468;2022-09-09T10:14:00;22.20;99.90
13462;DHT22;6803;45.264;5.468;2022-09-09T10:16:39;22.00;99.90
13462;DHT22;6803;45.264;5.468;2022-09-09T10:19:13;22.20;99.90
13462;DHT22;6803;45.264;5.468;2022-09-09T10:21:56;22.40;99.90
13462;DHT22;6803;45.264;5.468;2022-09-09T10:27:46;22.50;99.90
13462;DHT22;6803;45.264;5.468;2022-09-09T10:30:21;22.60;99.90
13462;DHT22;6803;45.264;5.468;2022-09-09T10:32:56;22.80;99.90
13462;DHT22;6803;45.264;5.468;2022-09-09T10:35:30;23.20;99.90
13462;DHT22;6803;45.264;5.468;2022-09-09T10:44:19;23.20;99.90
13462;DHT22;6803;45.264;5.468;2022-09-09T10:55:23;23.10;99.90
13462;DHT22;6803;45.264;5.468;2022-09-09T10:57:58;22.90;99.90
13462;DHT22;6803;45.264;5.468;2022-09-09T11:03:14;23.70;99.90
13462;DHT22;6803;45.264;5.468;2022-09-09T11:05:49;24.10;99.90
13462;DHT22;6803;45.264;5.468;2022-09-09T11:08:21;23.90;99.90
13462;DHT22;6803;45.264;5.468;2022-09-09T11:10:56;24.00;99.90
13462;DHT22;6803;45.264;5.468;2022-09-09T11:13:32;24.00;99.90
13462;DHT22;6803;45.264;5.468;2022-09-09T11:16:12;23.90;99.90
13462;DHT22;6803;45.264;5.468;2022-09-09T11:18:40;24.50;99.90
13462;DHT22;6803;45.264;5.468;2022-09-09T11:21:15;24.90;99.90
13462;DHT22;6803;45.264;5.468;2022-09-09T11:23:49;25.50;99.90
13462;DHT22;6803;45.264;5.468;2022-09-09T11:29:14;24.90;99.90
13462;DHT22;6803;45.264;5.468;2022-09-09T11:31:52;24.40;99.90
13462;DHT22;6803;45.264;5.468;2022-09-09T11:34:42;23.80;99.90
13462;DHT22;6803;45.264;5.468;2022-09-09T11:37:45;23.20;99.90
13462;DHT22;6803;45.264;5.468;2022-09-09T11:40:20;23.30;99.90
13462;DHT22;6803;45.264;5.468;2022-09-09T11:43:04;23.50;99.90
13462;DHT22;6803;45.264;5.468;2022-09-09T11:45:36;24.40;99.90
13462;DHT22;6803;45.264;5.468;2022-09-09T11:48:22;25.00;99.90
13462;DHT22;6803;45.264;5.468;2022-09-09T11:50:44;25.20;99.90
13462;DHT22;6803;45.264;5.468;2022-09-09T11:53:23;24.40;99.90
13462;DHT22;6803;45.264;5.468;2022-09-09T11:56:09;23.70;99.90
13462;DHT22;6803;45.264;5.468;2022-09-09T11:58:42;24.50;99.90
13462;DHT22;6803;45.264;5.468;2022-09-09T12:01:25;24.90;99.90
13462;DHT22;6803;45.264;5.468;2022-09-09T12:04:09;25.50;99.90
13462;DHT22;6803;45.264;5.468;2022-09-09T12:06:45;26.20;99.90
13462;DHT22;6803;45.264;5.468;2022-09-09T12:09:22;26.10;99.90
13462;DHT22;6803;45.264;5.468;2022-09-09T12:11:53;26.30;99.90
13462;DHT22;6803;45.264;5.468;2022-09-09T12:14:38;26.20;99.90
13462;DHT22;6803;45.264;5.468;2022-09-09T12:20:11;25.90;99.90
13462;DHT22;6803;45.264;5.468;2022-09-09T12:28:49;27.10;99.90
13462;DHT22;6803;45.264;5.468;2022-09-09T12:31:24;27.20;99.90
13462;DHT22;6803;45.264;5.468;2022-09-09T12:33:55;27.60;99.90
13462;DHT22;6803;45.264;5.468;2022-09-09T12:36:29;27.60;99.90
13462;DHT22;6803;45.264;5.468;2022-09-09T12:39:09;27.10;99.90
13462;DHT22;6803;45.264;5.468;2022-09-09T12:41:40;27.40;99.90
13462;DHT22;6803;45.264;5.468;2022-09-09T12:44:11;27.30;96.30
13462;DHT22;6803;45.264;5.468;2022-09-09T12:46:43;26.60;98.20
13462;DHT22;6803;45.264;5.468;2022-09-09T12:49:29;26.80;99.90
13462;DHT22;6803;45.264;5.468;2022-09-09T12:52:05;25.80;99.10
13462;DHT22;6803;45.264;5.468;2022-09-09T12:54:38;25.10;99.70
13462;DHT22;6803;45.264;5.468;2022-09-09T12:57:12;25.50;99.80
13462;DHT22;6803;45.264;5.468;2022-09-09T12:59:44;26.50;99.90
13462;DHT22;6803;45.264;5.468;2022-09-09T13:02:23;27.50;99.90
13462;DHT22;6803;45.264;5.468;2022-09-09T13:04:55;27.90;97.40
13462;DHT22;6803;45.264;5.468;2022-09-09T13:07:27;27.80;97.10
13462;DHT22;6803;45.264;5.468;2022-09-09T13:09:58;28.00;98.40
13462;DHT22;6803;45.264;5.468;2022-09-09T13:12:28;27.30;97.10
13462;DHT22;6803;45.264;5.468;2022-09-09T13:14:59;27.30;96.90
13462;DHT22;6803;45.264;5.468;2022-09-09T13:17:31;27.90;96.80
13462;DHT22;6803;45.264;5.468;2022-09-09T13:20:02;28.00;96.20
13462;DHT22;6803;45.264;5.468;2022-09-09T13:22:35;27.30;94.40
13462;DHT22;6803;45.264;5.468;2022-09-09T13:25:20;27.90;96.40
13462;DHT22;6803;45.264;5.468;2022-09-09T13:27:57;28.40;94.10
13462;DHT22;6803;45.264;5.468;2022-09-09T13:30:30;28.80;94.20
13462;DHT22;6803;45.264;5.468;2022-09-09T13:33:20;28.70;93.90
13462;DHT22;6803;45.264;5.468;2022-09-09T13:35:55;28.30;94.20
13462;DHT22;6803;45.264;5.468;2022-09-09T13:38:26;28.50;94.30
13462;DHT22;6803;45.264;5.468;2022-09-09T13:41:00;28.80;94.70
13462;DHT22;6803;45.264;5.468;2022-09-09T13:43:35;28.70;93.60
13462;DHT22;6803;45.264;5.468;2022-09-09T13:46:23;29.10;94.20
13462;DHT22;6803;45.264;5.468;2022-09-09T13:48:57;29.30;92.70
13462;DHT22;6803;45.264;5.468;2022-09-09T13:51:34;29.00;93.10
13462;DHT22;6803;45.264;5.468;2022-09-09T13:54:08;28.60;90.80
13462;DHT22;6803;45.264;5.468;2022-09-09T13:56:40;28.40;90.90
13462;DHT22;6803;45.264;5.468;2022-09-09T13:59:13;29.00;93.50
13462;DHT22;6803;45.264;5.468;2022-09-09T14:01:44;29.10;91.70
13462;DHT22;6803;45.264;5.468;2022-09-09T14:04:15;29.70;92.00
13462;DHT22;6803;45.264;5.468;2022-09-09T14:06:45;29.00;92.10
13462;DHT22;6803;45.264;5.468;2022-09-09T14:09:18;29.40;91.00
13462;DHT22;6803;45.264;5.468;2022-09-09T14:11:49;29.30;86.70
13462;DHT22;6803;45.264;5.468;2022-09-09T14:14:20;29.60;91.30
13462;DHT22;6803;45.264;5.468;2022-09-09T14:16:51;29.30;90.50
13462;DHT22;6803;45.264;5.468;2022-09-09T14:19:22;29.30;86.00
13462;DHT22;6803;45.264;5.468;2022-09-09T14:21:54;29.00;90.40
13462;DHT22;6803;45.264;5.468;2022-09-09T14:24:24;29.20;90.50
13462;DHT22;6803;45.264;5.468;2022-09-09T14:26:55;28.90;90.00
13462;DHT22;6803;45.264;5.468;2022-09-09T14:29:26;29.30;90.10
13462;DHT22;6803;45.264;5.468;2022-09-09T14:31:57;29.20;90.10
13462;DHT22;6803;45.264;5.468;2022-09-09T14:34:29;29.50;88.60
13462;DHT22;6803;45.264;5.468;2022-09-09T14:37:01;29.40;83.50
13462;DHT22;6803;45.264;5.468;2022-09-09T14:39:32;29.20;84.50
13462;DHT22;6803;45.264;5.468;2022-09-09T14:42:03;29.10;89.80
13462;DHT22;6803;45.264;5.468;2022-09-09T14:44:34;29.10;85.10
13462;DHT22;6803;45.264;5.468;2022-09-09T14:47:05;28.70;89.10
13462;DHT22;6803;45.264;5.468;2022-09-09T14:49:37;28.60;81.50
13462;DHT22;6803;45.264;5.468;2022-09-09T14:52:09;27.80;86.40
13462;DHT22;6803;45.264;5.468;2022-09-09T14:54:40;27.80;86.90
13462;DHT22;6803;45.264;5.468;2022-09-09T14:57:11;27.00;90.40
13462;DHT22;6803;45.264;5.468;2022-09-09T14:59:41;26.20;92.10
13462;DHT22;6803;45.264;5.468;2022-09-09T15:02:14;26.20;90.80
13462;DHT22;6803;45.264;5.468;2022-09-09T15:04:46;25.80;89.50
13462;DHT22;6803;45.264;5.468;2022-09-09T15:07:19;25.50;91.00
13462;DHT22;6803;45.264;5.468;2022-09-09T15:09:51;25.00;93.20
13462;DHT22;6803;45.264;5.468;2022-09-09T15:12:22;25.20;91.60
13462;DHT22;6803;45.264;5.468;2022-09-09T15:14:54;25.50;93.30
13462;DHT22;6803;45.264;5.468;2022-09-09T15:17:25;26.30;93.90
13462;DHT22;6803;45.264;5.468;2022-09-09T15:19:56;27.10;92.30
13462;DHT22;6803;45.264;5.468;2022-09-09T15:25:06;27.30;92.40
13462;DHT22;6803;45.264;5.468;2022-09-09T15:30:15;27.50;86.50
13462;DHT22;6803;45.264;5.468;2022-09-09T15:32:52;27.70;89.50
13462;DHT22;6803;45.264;5.468;2022-09-09T15:35:26;27.20;91.20
13462;DHT22;6803;45.264;5.468;2022-09-09T15:38:03;26.50;91.90
13462;DHT22;6803;45.264;5.468;2022-09-09T15:40:35;26.20;92.50
13462;DHT22;6803;45.264;5.468;2022-09-09T15:43:06;25.80;92.80
13462;DHT22;6803;45.264;5.468;2022-09-09T15:45:38;25.80;93.20
13462;DHT22;6803;45.264;5.468;2022-09-09T15:48:09;25.30;92.40
13462;DHT22;6803;45.264;5.468;2022-09-09T15:50:40;25.10;89.60
13462;DHT22;6803;45.264;5.468;2022-09-09T15:53:13;25.10;92.20
13462;DHT22;6803;45.264;5.468;2022-09-09T15:55:45;24.80;95.60
13462;DHT22;6803;45.264;5.468;2022-09-09T15:58:17;24.40;94.90
13462;DHT22;6803;45.264;5.468;2022-09-09T16:00:49;24.20;92.30
13462;DHT22;6803;45.264;5.468;2022-09-09T16:03:21;24.10;93.80
13462;DHT22;6803;45.264;5.468;2022-09-09T16:05:53;24.10;91.60
13462;DHT22;6803;45.264;5.468;2022-09-09T16:08:23;23.80;94.10
13462;DHT22;6803;45.264;5.468;2022-09-09T16:10:54;23.30;94.30
13462;DHT22;6803;45.264;5.468;2022-09-09T16:13:26;23.10;94.60
13462;DHT22;6803;45.264;5.468;2022-09-09T16:15:59;22.90;96.40
13462;DHT22;6803;45.264;5.468;2022-09-09T16:18:37;22.80;95.00
13462;DHT22;6803;45.264;5.468;2022-09-09T16:21:11;22.70;97.20
13462;DHT22;6803;45.264;5.468;2022-09-09T16:23:42;22.50;94.90
13462;DHT22;6803;45.264;5.468;2022-09-09T16:26:14;22.40;96.30
13462;DHT22;6803;45.264;5.468;2022-09-09T16:28:45;22.40;94.60
13462;DHT22;6803;45.264;5.468;2022-09-09T16:31:18;22.40;94.60
13462;DHT22;6803;45.264;5.468;2022-09-09T16:33:50;22.30;94.80
13462;DHT22;6803;45.264;5.468;2022-09-09T16:36:23;22.30;94.80
13462;DHT22;6803;45.264;5.468;2022-09-09T16:38:56;22.30;95.90
13462;DHT22;6803;45.264;5.468;2022-09-09T16:41:28;22.20;97.80
13462;DHT22;6803;45.264;5.468;2022-09-09T16:44:03;22.20;97.80
13462;DHT22;6803;45.264;5.468;2022-09-09T16:46:35;22.20;98.10
13462;DHT22;6803;45.264;5.468;2022-09-09T16:49:09;22.20;98.10
13462;DHT22;6803;45.264;5.468;2022-09-09T16:51:45;22.10;98.40
13462;DHT22;6803;45.264;5.468;2022-09-09T16:54:17;22.10;99.00
13462;DHT22;6803;45.264;5.468;2022-09-09T16:56:49;22.00;99.20
13462;DHT22;6803;45.264;5.468;2022-09-09T16:59:21;21.90;98.50
13462;DHT22;6803;45.264;5.468;2022-09-09T17:01:52;21.80;99.20
13462;DHT22;6803;45.264;5.468;2022-09-09T17:04:26;21.80;99.90
13462;DHT22;6803;45.264;5.468;2022-09-09T17:09:34;21.60;99.30